sensor_id;sensor_type;location;lat;lon;timestamp;pressure;altitude;pressure_sealevel;temperature;humidity
71361;BME280;59166;48.908;1.870;2023-02-23T00:05:00;100120.34;;;7.05;100.00
71361;BME280;59166;48.908;1.870;2023-02-23T00:10:02;100123.25;;;7.04;100.00
71361;BME280;59166;48.908;1.870;2023-02-23T00:15:03;100122.75;;;7.07;100.00
71361;BME280;59166;48.908;1.870;2023-02-23T00:20:06;100124.91;;;7.05;100.00
71361;BME280;59166;48.908;1.870;2023-02-23T00:25:09;100125.03;;;6.98;100.00
71361;BME280;59166;48.908;1.870;2023-02-23T00:30:11;100123.69;;;6.84;100.00
71361;BME280;59166;48.908;1.870;2023-02-23T00:35:12;100129.09;;;6.72;100.00
71361;BME280;59166;48.908;1.870;2023-02-23T00:40:16;100128.34;;;6.60;100.00
71361;BME280;59166;48.908;1.870;2023-02-23T00:45:17;100130.91;;;6.55;100.00
71361;BME280;59166;48.908;1.870;2023-02-23T00:50:19;100128.13;;;6.50;100.00
71361;BME280;59166;48.908;1.870;2023-02-23T00:55:21;100116.59;;;6.50;100.00
71361;BME280;59166;48.908;1.870;2023-02-23T01:00:22;100117.97;;;6.52;100.00
71361;BME280;59166;48.908;1.870;2023-02-23T01:05:22;100110.66;;;6.48;100.00
71361;BME280;59166;48.908;1.870;2023-02-23T01:10:25;100105.16;;;6.43;100.00
71361;BME280;59166;48.908;1.870;2023-02-23T01:15:25;100108.88;;;6.42;100.00
71361;BME280;59166;48.908;1.870;2023-02-23T01:20:26;100109.81;;;6.36;100.00
71361;BME280;59166;48.908;1.870;2023-02-23T01:25:28;100115.81;;;6.26;100.00
71361;BME280;59166;48.908;1.870;2023-02-23T01:30:30;100120.38;;;6.14;100.00
71361;BME280;59166;48.908;1.870;2023-02-23T01:35:31;100129.59;;;6.06;100.00
71361;BME280;59166;48.908;1.870;2023-02-23T01:40:33;100135.09;;;6.00;100.00
71361;BME280;59166;48.908;1.870;2023-02-23T01:45:34;100132.88;;;5.97;100.00
71361;BME280;59166;48.908;1.870;2023-02-23T01:50:41;100129.94;;;5.98;100.00
71361;BME280;59166;48.908;1.870;2023-02-23T01:55:45;100137.63;;;5.95;100.00
71361;BME280;59166;48.908;1.870;2023-02-23T02:00:49;100125.88;;;5.84;100.00
71361;BME280;59166;48.908;1.870;2023-02-23T02:05:51;100126.59;;;5.80;100.00
71361;BME280;59166;48.908;1.870;2023-02-23T02:10:54;100117.25;;;5.70;100.00
71361;BME280;59166;48.908;1.870;2023-02-23T02:16:19;100114.22;;;5.67;100.00
71361;BME280;59166;48.908;1.870;2023-02-23T02:21:57;100110.75;;;5.43;100.00
71361;BME280;59166;48.908;1.870;2023-02-23T02:27:31;100120.75;;;5.36;100.00
71361;BME280;59166;48.908;1.870;2023-02-23T02:38:27;100121.41;;;5.32;100.00
71361;BME280;59166;48.908;1.870;2023-02-23T02:43:37;100111.06;;;5.35;100.00
71361;BME280;59166;48.908;1.870;2023-02-23T02:49:01;100115.38;;;5.36;100.00
71361;BME280;59166;48.908;1.870;2023-02-23T02:54:09;100112.09;;;5.34;100.00
71361;BME280;59166;48.908;1.870;2023-02-23T02:59:29;100101.75;;;5.38;100.00
71361;BME280;59166;48.908;1.870;2023-02-23T03:04:30;100106.63;;;5.29;100.00
71361;BME280;59166;48.908;1.870;2023-02-23T03:09:38;100103.00;;;5.23;100.00
71361;BME280;59166;48.908;1.870;2023-02-23T03:14:46;100100.31;;;5.23;100.00
71361;BME280;59166;48.908;1.870;2023-02-23T03:19:54;100099.59;;;5.16;100.00
71361;BME280;59166;48.908;1.870;2023-02-23T03:25:03;100104.50;;;5.08;100.00
71361;BME280;59166;48.908;1.870;2023-02-23T03:30:09;100099.44;;;5.00;100.00
71361;BME280;59166;48.908;1.870;2023-02-23T03:35:17;100096.97;;;4.87;100.00
71361;BME280;59166;48.908;1.870;2023-02-23T03:40:25;100102.22;;;4.82;100.00
71361;BME280;59166;48.908;1.870;2023-02-23T03:45:28;100102.66;;;4.79;100.00
71361;BME280;59166;48.908;1.870;2023-02-23T03:50:33;100098.00;;;4.74;100.00
71361;BME280;59166;48.908;1.870;2023-02-23T03:55:41;100100.19;;;4.65;100.00
71361;BME280;59166;48.908;1.870;2023-02-23T04:00:46;100099.66;;;4.57;100.00
71361;BME280;59166;48.908;1.870;2023-02-23T04:05:48;100090.09;;;4.49;100.00
71361;BME280;59166;48.908;1.870;2023-02-23T04:10:57;100088.56;;;4.42;100.00
71361;BME280;59166;48.908;1.870;2023-02-23T04:16:02;100099.94;;;4.37;100.00
71361;BME280;59166;48.908;1.870;2023-02-23T04:21:06;100094.22;;;4.34;100.00
71361;BME280;59166;48.908;1.870;2023-02-23T04:26:08;100112.34;;;4.32;100.00
71361;BME280;59166;48.908;1.870;2023-02-23T04:31:09;100115.88;;;4.26;100.00
71361;BME280;59166;48.908;1.870;2023-02-23T04:36:11;100130.09;;;4.26;100.00
71361;BME280;59166;48.908;1.870;2023-02-23T04:41:13;100130.91;;;4.27;100.00
71361;BME280;59166;48.908;1.870;2023-02-23T04:46:14;100134.91;;;4.36;100.00
71361;BME280;59166;48.908;1.870;2023-02-23T04:51:15;100141.59;;;4.45;100.00
71361;BME280;59166;48.908;1.870;2023-02-23T04:56:17;100141.28;;;4.53;100.00
71361;BME280;59166;48.908;1.870;2023-02-23T05:01:18;100149.75;;;4.68;100.00
71361;BME280;59166;48.908;1.870;2023-02-23T05:06:19;100154.09;;;4.81;100.00
71361;BME280;59166;48.908;1.870;2023-02-23T05:11:21;100158.53;;;4.87;100.00
71361;BME280;59166;48.908;1.870;2023-02-23T05:16:22;100161.34;;;4.92;100.00
71361;BME280;59166;48.908;1.870;2023-02-23T05:21:22;100160.09;;;4.94;100.00
71361;BME280;59166;48.908;1.870;2023-02-23T05:26:25;100168.09;;;4.94;100.00
71361;BME280;59166;48.908;1.870;2023-02-23T05:31:26;100160.09;;;4.94;100.00
71361;BME280;59166;48.908;1.870;2023-02-23T05:36:27;100153.53;;;4.90;100.00
71361;BME280;59166;48.908;1.870;2023-02-23T05:41:29;100157.03;;;4.91;100.00
71361;BME280;59166;48.908;1.870;2023-02-23T05:46:35;100157.78;;;4.98;100.00
71361;BME280;59166;48.908;1.870;2023-02-23T05:51:35;100149.75;;;4.98;100.00
71361;BME280;59166;48.908;1.870;2023-02-23T05:56:38;100149.75;;;4.98;100.00
71361;BME280;59166;48.908;1.870;2023-02-23T06:01:39;100137.38;;;4.97;100.00
71361;BME280;59166;48.908;1.870;2023-02-23T06:06:40;100157.19;;;4.96;100.00
71361;BME280;59166;48.908;1.870;2023-02-23T06:11:42;100152.06;;;4.94;100.00
71361;BME280;59166;48.908;1.870;2023-02-23T06:16:43;100145.66;;;4.95;100.00
71361;BME280;59166;48.908;1.870;2023-02-23T06:21:43;100144.59;;;4.96;100.00
71361;BME280;59166;48.908;1.870;2023-02-23T06:26:46;100153.69;;;4.95;100.00
71361;BME280;59166;48.908;1.870;2023-02-23T06:31:47;100164.75;;;4.99;100.00
71361;BME280;59166;48.908;1.870;2023-02-23T06:36:48;100168.84;;;5.01;100.00
71361;BME280;59166;48.908;1.870;2023-02-23T06:41:50;100177.44;;;5.03;100.00
71361;BME280;59166;48.908;1.870;2023-02-23T06:46:51;100173.63;;;4.99;100.00
71361;BME280;59166;48.908;1.870;2023-02-23T06:51:51;100178.59;;;4.96;100.00
71361;BME280;59166;48.908;1.870;2023-02-23T06:56:54;100185.38;;;5.10;100.00
71361;BME280;59166;48.908;1.870;2023-02-23T07:01:55;100185.66;;;5.20;100.00
71361;BME280;59166;48.908;1.870;2023-02-23T07:06:56;100192.16;;;5.12;100.00
71361;BME280;59166;48.908;1.870;2023-02-23T07:11:58;100197.19;;;5.20;100.00
71361;BME280;59166;48.908;1.870;2023-02-23T07:16:59;100202.09;;;5.23;100.00
71361;BME280;59166;48.908;1.870;2023-02-23T07:22:00;100204.19;;;5.21;100.00
71361;BME280;59166;48.908;1.870;2023-02-23T07:27:04;100213.13;;;5.15;100.00
71361;BME280;59166;48.908;1.870;2023-02-23T07:32:06;100215.34;;;5.18;100.00
71361;BME280;59166;48.908;1.870;2023-02-23T07:37:07;100225.50;;;5.28;100.00
71361;BME280;59166;48.908;1.870;2023-02-23T07:42:09;100221.59;;;5.42;100.00
71361;BME280;59166;48.908;1.870;2023-02-23T07:47:12;100224.50;;;5.41;100.00
71361;BME280;59166;48.908;1.870;2023-02-23T07:52:16;100233.66;;;5.33;100.00
71361;BME280;59166;48.908;1.870;2023-02-23T07:57:18;100241.03;;;5.38;100.00
71361;BME280;59166;48.908;1.870;2023-02-23T08:02:19;100251.16;;;5.36;100.00
71361;BME280;59166;48.908;1.870;2023-02-23T08:07:20;100251.84;;;5.31;100.00
71361;BME280;59166;48.908;1.870;2023-02-23T08:12:23;100254.28;;;5.33;100.00
71361;BME280;59166;48.908;1.870;2023-02-23T08:17:24;100244.03;;;5.30;100.00
71361;BME280;59166;48.908;1.870;2023-02-23T08:22:25;100235.28;;;5.22;100.00
71361;BME280;59166;48.908;1.870;2023-02-23T08:27:27;100239.13;;;5.27;100.00
71361;BME280;59166;48.908;1.870;2023-02-23T08:32:28;100244.31;;;5.40;100.00
71361;BME280;59166;48.908;1.870;2023-02-23T08:37:29;100249.22;;;5.43;100.00
71361;BME280;59166;48.908;1.870;2023-02-23T08:42:32;100253.22;;;5.34;100.00
71361;BME280;59166;48.908;1.870;2023-02-23T08:47:32;100256.38;;;5.31;100.00
71361;BME280;59166;48.908;1.870;2023-02-23T08:52:33;100255.03;;;5.40;100.00
71361;BME280;59166;48.908;1.870;2023-02-23T08:57:36;100255.81;;;5.40;100.00
71361;BME280;59166;48.908;1.870;2023-02-23T09:02:37;100260.66;;;5.50;100.00
71361;BME280;59166;48.908;1.870;2023-02-23T09:07:39;100269.63;;;5.55;100.00
71361;BME280;59166;48.908;1.870;2023-02-23T09:12:42;100272.31;;;5.55;100.00
71361;BME280;59166;48.908;1.870;2023-02-23T09:17:42;100282.63;;;5.70;100.00
71361;BME280;59166;48.908;1.870;2023-02-23T09:22:44;100275.53;;;5.87;100.00
71361;BME280;59166;48.908;1.870;2023-02-23T09:27:46;100275.09;;;5.90;100.00
71361;BME280;59166;48.908;1.870;2023-02-23T09:32:48;100282.34;;;6.13;100.00
71361;BME280;59166;48.908;1.870;2023-02-23T09:37:51;100283.25;;;6.18;100.00
71361;BME280;59166;48.908;1.870;2023-02-23T09:42:58;100279.66;;;6.24;100.00
71361;BME280;59166;48.908;1.870;2023-02-23T09:48:28;100271.50;;;6.31;100.00
71361;BME280;59166;48.908;1.870;2023-02-23T09:53:36;100274.06;;;6.38;100.00
71361;BME280;59166;48.908;1.870;2023-02-23T09:58:39;100265.19;;;6.72;100.00
71361;BME280;59166;48.908;1.870;2023-02-23T10:03:44;100269.63;;;6.78;100.00
71361;BME280;59166;48.908;1.870;2023-02-23T10:09:00;100263.53;;;6.83;100.00
71361;BME280;59166;48.908;1.870;2023-02-23T10:14:29;100267.94;;;7.00;100.00
71361;BME280;59166;48.908;1.870;2023-02-23T10:19:40;100267.09;;;7.40;100.00
71361;BME280;59166;48.908;1.870;2023-02-23T10:24:47;100268.06;;;7.34;100.00
71361;BME280;59166;48.908;1.870;2023-02-23T10:29:53;100263.69;;;7.44;100.00
71361;BME280;59166;48.908;1.870;2023-02-23T10:34:55;100263.91;;;7.43;100.00
71361;BME280;59166;48.908;1.870;2023-02-23T10:39:56;100273.53;;;7.39;100.00
71361;BME280;59166;48.908;1.870;2023-02-23T10:45:01;100275.00;;;7.46;100.00
71361;BME280;59166;48.908;1.870;2023-02-23T10:50:02;100281.97;;;7.59;100.00
71361;BME280;59166;48.908;1.870;2023-02-23T10:55:04;100278.84;;;7.95;100.00
71361;BME280;59166;48.908;1.870;2023-02-23T11:00:23;100267.03;;;7.96;100.00
71361;BME280;59166;48.908;1.870;2023-02-23T11:05:42;100274.94;;;8.19;100.00
71361;BME280;59166;48.908;1.870;2023-02-23T11:16:18;100276.00;;;8.90;97.22
71361;BME280;59166;48.908;1.870;2023-02-23T11:21:25;100267.44;;;9.42;96.61
71361;BME280;59166;48.908;1.870;2023-02-23T11:26:34;100272.63;;;9.75;95.46
71361;BME280;59166;48.908;1.870;2023-02-23T11:31:38;100269.00;;;9.64;90.15
71361;BME280;59166;48.908;1.870;2023-02-23T11:36:39;100264.13;;;9.88;90.18
71361;BME280;59166;48.908;1.870;2023-02-23T11:41:40;100259.03;;;10.28;87.73
71361;BME280;59166;48.908;1.870;2023-02-23T11:46:42;100264.53;;;9.75;85.78
71361;BME280;59166;48.908;1.870;2023-02-23T11:51:47;100262.09;;;8.81;88.17
71361;BME280;59166;48.908;1.870;2023-02-23T11:56:48;100256.00;;;8.69;91.52
71361;BME280;59166;48.908;1.870;2023-02-23T12:01:52;100258.25;;;8.94;92.71
71361;BME280;59166;48.908;1.870;2023-02-23T12:06:56;100256.38;;;9.16;89.30
71361;BME280;59166;48.908;1.870;2023-02-23T12:12:19;100238.84;;;9.41;91.00
71361;BME280;59166;48.908;1.870;2023-02-23T12:17:26;100247.84;;;9.78;86.31
71361;BME280;59166;48.908;1.870;2023-02-23T12:22:31;100245.69;;;9.80;87.15
71361;BME280;59166;48.908;1.870;2023-02-23T12:27:37;100238.59;;;9.69;89.17
71361;BME280;59166;48.908;1.870;2023-02-23T12:32:48;100232.63;;;9.67;84.99
71361;BME280;59166;48.908;1.870;2023-02-23T12:37:54;100244.78;;;9.69;84.32
71361;BME280;59166;48.908;1.870;2023-02-23T12:43:01;100245.66;;;9.75;86.06
71361;BME280;59166;48.908;1.870;2023-02-23T12:48:14;100236.28;;;9.82;86.59
71361;BME280;59166;48.908;1.870;2023-02-23T12:53:21;100234.47;;;9.93;84.85
71361;BME280;59166;48.908;1.870;2023-02-23T12:58:28;100242.59;;;9.98;82.55
71361;BME280;59166;48.908;1.870;2023-02-23T13:04:11;100237.44;;;9.92;84.48
71361;BME280;59166;48.908;1.870;2023-02-23T13:09:28;100228.53;;;9.91;81.55
71361;BME280;59166;48.908;1.870;2023-02-23T13:14:37;100227.69;;;9.86;80.86
71361;BME280;59166;48.908;1.870;2023-02-23T13:19:47;100232.66;;;10.04;82.58
71361;BME280;59166;48.908;1.870;2023-02-23T13:24:51;100225.13;;;10.06;84.63
71361;BME280;59166;48.908;1.870;2023-02-23T13:29:54;100214.66;;;10.14;85.17
71361;BME280;59166;48.908;1.870;2023-02-23T13:34:58;100202.03;;;10.25;85.16
71361;BME280;59166;48.908;1.870;2023-02-23T13:40:07;100210.97;;;10.30;82.50
71361;BME280;59166;48.908;1.870;2023-02-23T13:45:27;100217.41;;;10.19;84.72
71361;BME280;59166;48.908;1.870;2023-02-23T13:52:52;100213.88;;;10.19;84.90
71361;BME280;59166;48.908;1.870;2023-02-23T13:58:02;100221.16;;;10.18;83.39
71361;BME280;59166;48.908;1.870;2023-02-23T14:03:04;100225.69;;;9.76;83.66
71361;BME280;59166;48.908;1.870;2023-02-23T14:08:16;100228.28;;;9.66;84.23
71361;BME280;59166;48.908;1.870;2023-02-23T14:13:29;100229.09;;;9.66;84.51
71361;BME280;59166;48.908;1.870;2023-02-23T14:18:54;100225.19;;;9.79;84.25
71361;BME280;59166;48.908;1.870;2023-02-23T14:24:13;100221.84;;;9.99;85.08
71361;BME280;59166;48.908;1.870;2023-02-23T14:29:24;100210.81;;;9.68;84.40
71361;BME280;59166;48.908;1.870;2023-02-23T14:34:43;100200.34;;;9.45;86.77
71361;BME280;59166;48.908;1.870;2023-02-23T14:39:48;100208.28;;;9.30;87.33
71361;BME280;59166;48.908;1.870;2023-02-23T14:44:51;100219.75;;;9.20;87.67
71361;BME280;59166;48.908;1.870;2023-02-23T14:49:55;100221.31;;;9.16;88.50
71361;BME280;59166;48.908;1.870;2023-02-23T14:55:27;100219.06;;;9.30;88.97
71361;BME280;59166;48.908;1.870;2023-02-23T15:00:30;100226.06;;;9.31;87.20
71361;BME280;59166;48.908;1.870;2023-02-23T15:05:34;100226.00;;;9.53;87.52
71361;BME280;59166;48.908;1.870;2023-02-23T15:10:39;100210.66;;;9.85;85.88
71361;BME280;59166;48.908;1.870;2023-02-23T15:15:43;100211.81;;;9.94;84.80
71361;BME280;59166;48.908;1.870;2023-02-23T15:20:46;100217.56;;;10.03;86.85
71361;BME280;59166;48.908;1.870;2023-02-23T15:25:49;100219.38;;;9.97;85.01
71361;BME280;59166;48.908;1.870;2023-02-23T15:30:52;100223.88;;;9.87;85.20
71361;BME280;59166;48.908;1.870;2023-02-23T15:35:56;100223.97;;;9.65;85.64
71361;BME280;59166;48.908;1.870;2023-02-23T15:41:06;100227.53;;;9.44;86.74
71361;BME280;59166;48.908;1.870;2023-02-23T15:46:11;100227.09;;;9.25;86.87
71361;BME280;59166;48.908;1.870;2023-02-23T15:51:30;100224.03;;;9.16;88.86
71361;BME280;59166;48.908;1.870;2023-02-23T15:56:34;100228.59;;;9.16;88.13
71361;BME280;59166;48.908;1.870;2023-02-23T16:01:41;100233.78;;;9.22;89.45
71361;BME280;59166;48.908;1.870;2023-02-23T16:06:50;100235.84;;;9.15;88.94
71361;BME280;59166;48.908;1.870;2023-02-23T16:11:55;100229.97;;;9.18;89.53
71361;BME280;59166;48.908;1.870;2023-02-23T16:16:57;100221.63;;;9.20;89.54
71361;BME280;59166;48.908;1.870;2023-02-23T16:21:58;100221.88;;;9.18;90.56
71361;BME280;59166;48.908;1.870;2023-02-23T16:27:01;100228.34;;;9.17;89.71
71361;BME280;59166;48.908;1.870;2023-02-23T16:32:10;100231.06;;;9.17;88.96
71361;BME280;59166;48.908;1.870;2023-02-23T16:37:14;100225.97;;;9.21;90.65
71361;BME280;59166;48.908;1.870;2023-02-23T16:42:22;100225.66;;;9.17;90.08
71361;BME280;59166;48.908;1.870;2023-02-23T16:47:34;100225.91;;;9.16;91.45
71361;BME280;59166;48.908;1.870;2023-02-23T16:52:35;100223.50;;;9.19;90.28
71361;BME280;59166;48.908;1.870;2023-02-23T16:57:39;100220.19;;;9.12;90.91
71361;BME280;59166;48.908;1.870;2023-02-23T17:02:40;100226.16;;;9.14;90.98
71361;BME280;59166;48.908;1.870;2023-02-23T17:07:41;100228.34;;;9.17;91.67
71361;BME280;59166;48.908;1.870;2023-02-23T17:12:44;100230.44;;;9.10;91.44
71361;BME280;59166;48.908;1.870;2023-02-23T17:17:45;100226.41;;;9.13;90.83
71361;BME280;59166;48.908;1.870;2023-02-23T17:22:46;100230.22;;;9.17;89.83
71361;BME280;59166;48.908;1.870;2023-02-23T17:27:49;100230.97;;;9.12;91.42
71361;BME280;59166;48.908;1.870;2023-02-23T17:32:51;100230.47;;;9.15;91.76
71361;BME280;59166;48.908;1.870;2023-02-23T17:37:53;100235.25;;;9.08;92.79
71361;BME280;59166;48.908;1.870;2023-02-23T17:42:57;100236.31;;;9.07;92.00
71361;BME280;59166;48.908;1.870;2023-02-23T17:47:59;100233.63;;;9.07;89.85
71361;BME280;59166;48.908;1.870;2023-02-23T17:53:00;100224.97;;;9.05;92.45
71361;BME280;59166;48.908;1.870;2023-02-23T17:58:02;100231.44;;;9.04;90.81
71361;BME280;59166;48.908;1.870;2023-02-23T18:03:03;100240.06;;;9.06;92.49
71361;BME280;59166;48.908;1.870;2023-02-23T18:08:04;100230.97;;;9.12;89.99
71361;BME280;59166;48.908;1.870;2023-02-23T18:13:06;100236.38;;;9.12;91.24
71361;BME280;59166;48.908;1.870;2023-02-23T18:18:07;100245.72;;;9.05;92.08
71361;BME280;59166;48.908;1.870;2023-02-23T18:23:08;100248.91;;;9.02;92.27
71361;BME280;59166;48.908;1.870;2023-02-23T18:28:11;100254.06;;;9.03;92.92
71361;BME280;59166;48.908;1.870;2023-02-23T18:33:12;100246.41;;;8.95;93.90
71361;BME280;59166;48.908;1.870;2023-02-23T18:38:13;100252.06;;;8.94;94.18
71361;BME280;59166;48.908;1.870;2023-02-23T18:43:16;100254.78;;;8.99;94.36
71361;BME280;59166;48.908;1.870;2023-02-23T18:48:17;100261.31;;;9.03;95.34
71361;BME280;59166;48.908;1.870;2023-02-23T18:53:17;100253.31;;;9.08;93.72
71361;BME280;59166;48.908;1.870;2023-02-23T18:58:20;100251.16;;;9.10;93.29
71361;BME280;59166;48.908;1.870;2023-02-23T19:03:21;100238.50;;;9.10;94.51
71361;BME280;59166;48.908;1.870;2023-02-23T19:08:22;100249.53;;;9.09;95.05
71361;BME280;59166;48.908;1.870;2023-02-23T19:13:24;100246.78;;;9.04;95.76
71361;BME280;59166;48.908;1.870;2023-02-23T19:18:25;100244.66;;;9.06;95.30
71361;BME280;59166;48.908;1.870;2023-02-23T19:23:27;100228.63;;;8.94;96.31
71361;BME280;59166;48.908;1.870;2023-02-23T19:28:29;100220.59;;;8.99;96.39
71361;BME280;59166;48.908;1.870;2023-02-23T19:33:30;100226.59;;;8.85;97.09
71361;BME280;59166;48.908;1.870;2023-02-23T19:38:31;100228.16;;;8.80;97.90
71361;BME280;59166;48.908;1.870;2023-02-23T19:43:33;100219.06;;;8.87;96.92
71361;BME280;59166;48.908;1.870;2023-02-23T19:48:35;100220.09;;;8.80;97.27
71361;BME280;59166;48.908;1.870;2023-02-23T19:53:36;100223.00;;;8.79;96.13
71361;BME280;59166;48.908;1.870;2023-02-23T19:58:39;100221.31;;;8.73;96.44
71361;BME280;59166;48.908;1.870;2023-02-23T20:03:40;100206.72;;;8.69;96.79
71361;BME280;59166;48.908;1.870;2023-02-23T20:08:41;100213.84;;;8.58;96.56
71361;BME280;59166;48.908;1.870;2023-02-23T20:13:44;100213.31;;;8.56;95.32
71361;BME280;59166;48.908;1.870;2023-02-23T20:18:45;100224.16;;;8.45;97.25
71361;BME280;59166;48.908;1.870;2023-02-23T20:23:46;100217.72;;;8.46;96.15
71361;BME280;59166;48.908;1.870;2023-02-23T20:28:49;100229.38;;;8.51;98.35
71361;BME280;59166;48.908;1.870;2023-02-23T20:33:50;100231.41;;;8.61;96.42
71361;BME280;59166;48.908;1.870;2023-02-23T20:38:51;100227.09;;;8.60;95.55
71361;BME280;59166;48.908;1.870;2023-02-23T20:43:54;100229.13;;;8.53;96.24
71361;BME280;59166;48.908;1.870;2023-02-23T20:48:55;100234.09;;;8.61;96.04
71361;BME280;59166;48.908;1.870;2023-02-23T20:53:56;100239.97;;;8.58;96.61
71361;BME280;59166;48.908;1.870;2023-02-23T20:58:58;100234.19;;;8.49;97.23
71361;BME280;59166;48.908;1.870;2023-02-23T21:03:59;100231.09;;;8.57;97.02
71361;BME280;59166;48.908;1.870;2023-02-23T21:09:00;100240.22;;;8.56;96.99
71361;BME280;59166;48.908;1.870;2023-02-23T21:14:02;100239.91;;;8.53;97.66
71361;BME280;59166;48.908;1.870;2023-02-23T21:19:02;100245.09;;;8.59;95.83
71361;BME280;59166;48.908;1.870;2023-02-23T21:24:03;100251.66;;;8.47;96.92
71361;BME280;59166;48.908;1.870;2023-02-23T21:29:06;100247.72;;;8.54;95.79
71361;BME280;59166;48.908;1.870;2023-02-23T21:34:07;100270.41;;;8.58;96.00
71361;BME280;59166;48.908;1.870;2023-02-23T21:39:08;100259.56;;;8.53;95.92
71361;BME280;59166;48.908;1.870;2023-02-23T21:44:11;100253.78;;;8.45;97.60
71361;BME280;59166;48.908;1.870;2023-02-23T21:49:13;100258.50;;;8.38;98.58
71361;BME280;59166;48.908;1.870;2023-02-23T21:54:14;100263.44;;;8.41;98.21
71361;BME280;59166;48.908;1.870;2023-02-23T21:59:16;100277.44;;;8.43;98.13
71361;BME280;59166;48.908;1.870;2023-02-23T22:04:17;100267.69;;;8.37;98.73
71361;BME280;59166;48.908;1.870;2023-02-23T22:09:17;100268.81;;;8.41;98.26
71361;BME280;59166;48.908;1.870;2023-02-23T22:14:20;100266.84;;;8.36;99.35
71361;BME280;59166;48.908;1.870;2023-02-23T22:19:20;100258.19;;;8.34;99.47
71361;BME280;59166;48.908;1.870;2023-02-23T22:24:21;100257.97;;;8.36;99.39
71361;BME280;59166;48.908;1.870;2023-02-23T22:29:24;100262.28;;;8.37;100.00
71361;BME280;59166;48.908;1.870;2023-02-23T22:34:25;100254.78;;;8.39;99.17
71361;BME280;59166;48.908;1.870;2023-02-23T22:39:26;100254.38;;;8.47;99.00
71361;BME280;59166;48.908;1.870;2023-02-23T22:44:28;100249.47;;;8.44;99.46
71361;BME280;59166;48.908;1.870;2023-02-23T22:49:29;100243.78;;;8.40;100.00
71361;BME280;59166;48.908;1.870;2023-02-23T22:54:29;100234.22;;;8.32;100.00
71361;BME280;59166;48.908;1.870;2023-02-23T22:59:31;100235.88;;;8.34;100.00
71361;BME280;59166;48.908;1.870;2023-02-23T23:04:32;100227.78;;;8.34;100.00
71361;BME280;59166;48.908;1.870;2023-02-23T23:09:32;100217.75;;;8.29;100.00
71361;BME280;59166;48.908;1.870;2023-02-23T23:14:34;100222.16;;;8.35;100.00
71361;BME280;59166;48.908;1.870;2023-02-23T23:19:35;100222.88;;;8.30;100.00
71361;BME280;59166;48.908;1.870;2023-02-23T23:24:36;100221.84;;;8.31;100.00
71361;BME280;59166;48.908;1.870;2023-02-23T23:29:39;100220.47;;;8.29;100.00
71361;BME280;59166;48.908;1.870;2023-02-23T23:34:41;100219.72;;;8.34;100.00
71361;BME280;59166;48.908;1.870;2023-02-23T23:39:42;100205.38;;;8.28;100.00
71361;BME280;59166;48.908;1.870;2023-02-23T23:44:45;100212.47;;;8.17;100.00
71361;BME280;59166;48.908;1.870;2023-02-23T23:49:46;100209.44;;;8.14;100.00
71361;BME280;59166;48.908;1.870;2023-02-23T23:54:49;100204.41;;;8.17;100.00
71361;BME280;59166;48.908;1.870;2023-02-23T23:59:52;100203.34;;;8.18;100.00
